Time;durP1;ratioP1;P1;durP2;ratioP2;P2;SDS_P1;SDS_P2;PMS_P1;PMS_P2;Temp;Humidity;BMP_temperature;BMP_pressure;BME280_temperature;BME280_humidity;BME280_pressure;Samples;Min_cycle;Max_cycle;Signal;HPM_P1;HPM_P2
2022/07/28 00:02:05;;;;;;;2.20;1.00;;;15.90;99.90;;;;;;5032518;28;20194;-34
2022/07/28 00:04:32;;;;;;;2.10;1.10;;;15.90;99.90;;;;;;5032586;28;20194;-34
2022/07/28 00:06:58;;;;;;;2.30;1.17;;;15.80;99.90;;;;;;5031648;28;20444;-34
2022/07/28 00:09:24;;;;;;;2.77;1.20;;;15.90;99.90;;;;;;5041707;28;20461;-34
2022/07/28 00:11:49;;;;;;;1.63;1.20;;;15.90;99.90;;;;;;5046574;28;20451;-34
2022/07/28 00:14:15;;;;;;;1.17;1.03;;;15.90;99.90;;;;;;5052359;28;20269;-34
2022/07/28 00:16:41;;;;;;;2.50;1.50;;;15.80;99.90;;;;;;5051612;28;20193;-34
2022/07/28 00:19:07;;;;;;;2.60;1.10;;;15.80;99.90;;;;;;5049402;28;20316;-34
2022/07/28 00:21:32;;;;;;;2.20;1.20;;;15.80;99.90;;;;;;5060145;28;20196;-34
2022/07/28 00:23:58;;;;;;;3.50;1.10;;;15.80;99.90;;;;;;5032011;28;20672;-34
2022/07/28 00:26:24;;;;;;;2.37;1.03;;;15.90;99.90;;;;;;5032010;28;20190;-35
2022/07/28 00:28:49;;;;;;;1.60;1.20;;;15.90;99.90;;;;;;5031641;28;20183;-34
2022/07/28 00:31:15;;;;;;;1.23;1.10;;;15.90;99.90;;;;;;5030793;28;20360;-34
2022/07/28 00:33:41;;;;;;;2.30;1.50;;;15.80;99.90;;;;;;5032028;28;20198;-34
2022/07/28 00:36:08;;;;;;;3.23;1.27;;;15.80;99.90;;;;;;5031943;28;20812;-34
2022/07/28 00:38:34;;;;;;;3.20;1.70;;;15.80;99.90;;;;;;5031231;28;20727;-34
2022/07/28 00:41:12;;;;;;;1.57;1.17;;;15.80;99.90;;;;;;5031885;28;20429;-34
2022/07/28 00:43:42;;;;;;;1.83;1.30;;;15.60;99.90;;;;;;5032024;28;20790;-34
2022/07/28 00:46:08;;;;;;;3.10;1.03;;;15.60;99.90;;;;;;5031704;28;20432;-34
2022/07/28 00:48:38;;;;;;;2.80;1.40;;;15.60;99.90;;;;;;5031275;28;20440;-34
2022/07/28 00:51:06;;;;;;;2.50;1.30;;;15.60;99.90;;;;;;5031499;28;20461;-34
2022/07/28 00:53:31;;;;;;;2.80;1.40;;;15.50;99.90;;;;;;5031822;28;20432;-34
2022/07/28 00:55:57;;;;;;;3.03;1.37;;;15.40;99.90;;;;;;5031489;28;20959;-34
2022/07/28 00:58:25;;;;;;;2.70;1.83;;;15.40;99.90;;;;;;5031047;28;20209;-34
2022/07/28 01:00:51;;;;;;;3.33;1.50;;;15.40;99.90;;;;;;5031496;28;20197;-34
2022/07/28 01:03:18;;;;;;;1.30;1.13;;;15.30;99.90;;;;;;5031367;28;20437;-34
2022/07/28 01:06:19;;;;;;;3.43;1.50;;;15.30;99.90;;;;;;5031351;28;20312;-34
2022/07/28 01:08:51;;;;;;;2.17;1.30;;;15.40;99.90;;;;;;5040187;28;20421;-34
2022/07/28 01:11:45;;;;;;;4.90;1.80;;;15.30;99.90;;;;;;5041919;28;20470;-34
2022/07/28 01:15:02;;;;;;;2.10;1.10;;;15.30;99.90;;;;;;5049891;28;20432;-34
2022/07/28 01:17:41;;;;;;;3.40;1.43;;;15.30;99.90;;;;;;5049548;28;20432;-34
2022/07/28 01:20:12;;;;;;;1.33;1.20;;;15.30;99.90;;;;;;5041324;28;20429;-34
2022/07/28 01:23:01;;;;;;;1.87;1.40;;;15.30;99.90;;;;;;5048485;28;20790;-34
2022/07/28 01:25:44;;;;;;;3.77;2.27;;;15.40;99.90;;;;;;5031088;28;20421;-34
2022/07/28 01:28:48;;;;;;;2.57;1.27;;;15.30;99.90;;;;;;5030217;28;20417;-34
2022/07/28 01:31:20;;;;;;;2.90;1.40;;;15.30;99.90;;;;;;5029266;28;20987;-34
2022/07/28 01:33:50;;;;;;;3.77;1.70;;;15.20;99.90;;;;;;5035577;28;20436;-34
2022/07/28 01:36:20;;;;;;;2.17;1.40;;;15.30;99.90;;;;;;5047321;28;20474;-34
2022/07/28 01:38:47;;;;;;;5.73;1.30;;;15.20;99.90;;;;;;5029962;28;20427;-34
2022/07/28 01:41:27;;;;;;;3.67;1.37;;;15.30;99.90;;;;;;5030572;28;20436;-34
2022/07/28 01:44:03;;;;;;;2.50;1.30;;;15.20;99.90;;;;;;5030841;28;20828;-34
2022/07/28 01:46:30;;;;;;;1.17;1.00;;;15.20;99.90;;;;;;5030706;28;20452;-34
2022/07/28 01:48:57;;;;;;;3.00;1.30;;;15.20;99.90;;;;;;5030463;28;20439;-34
2022/07/28 01:51:27;;;;;;;1.60;1.00;;;15.20;99.90;;;;;;5030259;28;20464;-34
2022/07/28 01:53:57;;;;;;;2.60;1.60;;;15.20;99.90;;;;;;5048495;28;20438;-34
2022/07/28 01:56:24;;;;;;;3.70;1.80;;;15.10;99.90;;;;;;5030542;28;20433;-34
2022/07/28 01:58:51;;;;;;;1.80;1.10;;;15.10;99.90;;;;;;5028432;28;20923;-34
2022/07/28 02:01:19;;;;;;;2.60;1.50;;;15.10;99.90;;;;;;5030576;28;20436;-34
2022/07/28 02:03:46;;;;;;;2.00;1.37;;;15.10;99.90;;;;;;5030279;28;20440;-34
2022/07/28 02:06:14;;;;;;;3.37;1.60;;;15.00;99.90;;;;;;5030203;28;20463;-34
2022/07/28 02:08:41;;;;;;;5.30;1.90;;;15.00;99.90;;;;;;5038938;28;20431;-34
2022/07/28 02:13:53;;;;;;;3.33;1.40;;;14.90;99.90;;;;;;5050237;28;20481;-34
2022/07/28 02:16:21;;;;;;;1.53;1.40;;;14.90;99.90;;;;;;5049737;28;20420;-34
2022/07/28 02:18:48;;;;;;;8.07;1.63;;;14.80;99.90;;;;;;5047857;28;20428;-34
2022/07/28 02:21:15;;;;;;;3.53;1.43;;;14.80;99.90;;;;;;5050161;28;20535;-35
2022/07/28 02:23:44;;;;;;;2.70;1.53;;;14.70;99.90;;;;;;5049908;28;20432;-34
2022/07/28 02:26:13;;;;;;;1.60;1.50;;;14.70;99.90;;;;;;5050161;28;20424;-34
2022/07/28 02:28:45;;;;;;;2.67;1.67;;;14.70;99.90;;;;;;5049276;28;20459;-34
2022/07/28 02:31:44;;;;;;;1.97;1.33;;;14.70;99.90;;;;;;5049999;28;20843;-34
2022/07/28 02:34:13;;;;;;;3.10;1.80;;;14.70;99.90;;;;;;5036975;28;20429;-34
2022/07/28 02:36:48;;;;;;;5.67;1.70;;;14.70;99.90;;;;;;5029213;28;20433;-34
2022/07/28 02:39:28;;;;;;;3.67;1.80;;;14.70;99.90;;;;;;5029728;28;20486;-34
2022/07/28 02:42:07;;;;;;;1.60;1.50;;;14.70;99.90;;;;;;5038005;28;21036;-34
2022/07/28 02:44:40;;;;;;;1.83;1.60;;;14.60;99.90;;;;;;5049759;28;20499;-34
2022/07/28 02:47:09;;;;;;;4.00;1.73;;;14.60;99.90;;;;;;5049032;28;21099;-34
2022/07/28 02:49:36;;;;;;;6.40;2.10;;;14.60;99.90;;;;;;5049483;28;20460;-34
2022/07/28 02:52:04;;;;;;;2.90;1.53;;;14.50;99.90;;;;;;5049843;28;20531;-34
2022/07/28 02:54:31;;;;;;;5.10;2.03;;;14.50;99.90;;;;;;5052351;28;21149;-34
2022/07/28 02:56:58;;;;;;;2.17;1.50;;;14.40;99.90;;;;;;5053279;28;20793;-34
2022/07/28 02:59:26;;;;;;;1.50;1.30;;;14.40;99.90;;;;;;5053667;28;20460;-34
2022/07/28 03:01:52;;;;;;;3.00;1.60;;;14.30;99.90;;;;;;5053793;28;20784;-34
2022/07/28 03:04:55;;;;;;;2.47;1.47;;;14.40;99.90;;;;;;5053230;28;20503;-34
2022/07/28 03:07:06;;;;;;;3.60;1.53;;;14.30;99.90;;;;;;5052716;28;20474;-34
2022/07/28 03:09:41;;;;;;;2.83;1.60;;;14.40;99.90;;;;;;5043613;28;20545;-34
2022/07/28 03:12:09;;;;;;;3.43;1.63;;;14.40;99.90;;;;;;5051387;28;20462;-34
2022/07/28 03:14:35;;;;;;;2.50;1.40;;;14.40;99.90;;;;;;5053305;28;20431;-34
2022/07/28 03:17:01;;;;;;;4.33;1.80;;;14.40;99.90;;;;;;5052760;28;20428;-34
2022/07/28 03:19:27;;;;;;;2.50;1.40;;;14.40;99.90;;;;;;5051938;28;20420;-34
2022/07/28 03:21:53;;;;;;;4.47;1.90;;;14.30;99.90;;;;;;5059267;28;20805;-34
2022/07/28 03:24:21;;;;;;;2.13;1.63;;;14.30;99.90;;;;;;5033360;28;20187;-34
2022/07/28 03:27:06;;;;;;;2.50;1.57;;;14.30;99.90;;;;;;5032432;28;20243;-34
2022/07/28 03:29:33;;;;;;;3.90;1.73;;;14.30;99.90;;;;;;5032925;28;20551;-34
2022/07/28 03:31:59;;;;;;;3.47;2.03;;;14.30;99.90;;;;;;5033093;28;20451;-34
2022/07/28 03:34:26;;;;;;;2.43;1.83;;;14.30;99.90;;;;;;5031896;28;20437;-34
2022/07/28 03:37:15;;;;;;;2.50;1.67;;;14.20;99.90;;;;;;5032342;28;20431;-34
2022/07/28 03:39:47;;;;;;;2.23;1.40;;;14.20;99.90;;;;;;5040517;28;20432;-34
2022/07/28 03:42:19;;;;;;;1.97;1.73;;;14.20;99.90;;;;;;5042773;28;20435;-34
2022/07/28 03:44:46;;;;;;;2.47;1.40;;;14.20;99.90;;;;;;5034163;28;20436;-34
2022/07/28 03:47:13;;;;;;;3.80;1.73;;;14.10;99.90;;;;;;5032185;28;20486;-34
2022/07/28 03:49:39;;;;;;;2.90;1.50;;;14.10;99.90;;;;;;5038239;28;20475;-34
2022/07/28 03:52:05;;;;;;;2.40;2.00;;;14.00;99.90;;;;;;5045342;28;20420;-34
2022/07/28 03:54:31;;;;;;;2.93;1.87;;;14.00;99.90;;;;;;5034235;28;20421;-34
2022/07/28 03:56:57;;;;;;;3.87;1.80;;;13.90;99.90;;;;;;5043549;28;21032;-34
2022/07/28 03:59:23;;;;;;;4.63;2.17;;;13.90;99.90;;;;;;5033534;28;20194;-34
2022/07/28 04:01:49;;;;;;;3.33;1.47;;;14.00;99.90;;;;;;5049500;28;20424;-34
2022/07/28 04:04:15;;;;;;;3.53;1.80;;;13.90;99.90;;;;;;5033143;28;20429;-34
2022/07/28 04:06:41;;;;;;;6.13;2.10;;;14.00;99.90;;;;;;5031652;28;20452;-34
2022/07/28 04:09:06;;;;;;;3.33;1.80;;;14.00;99.90;;;;;;5047247;28;20423;-34
2022/07/28 04:11:32;;;;;;;2.37;1.80;;;13.90;99.90;;;;;;5039452;28;20364;-34
2022/07/28 04:13:58;;;;;;;5.73;1.90;;;13.90;99.90;;;;;;5032417;28;21116;-34
2022/07/28 04:16:24;;;;;;;4.20;2.07;;;14.00;99.90;;;;;;5032392;28;20193;-34
2022/07/28 04:18:49;;;;;;;5.43;2.27;;;14.10;99.90;;;;;;5030055;28;20752;-34
2022/07/28 04:21:15;;;;;;;2.33;1.70;;;14.00;99.90;;;;;;5044492;28;20225;-34
2022/07/28 04:23:41;;;;;;;2.73;1.90;;;14.00;99.90;;;;;;5047093;28;20557;-34
2022/07/28 04:26:07;;;;;;;4.67;2.83;;;14.10;99.90;;;;;;5038519;28;20958;-34
2022/07/28 04:28:33;;;;;;;3.97;1.90;;;14.00;99.90;;;;;;5031406;28;20285;-34
2022/07/28 04:30:58;;;;;;;5.93;2.23;;;14.10;99.90;;;;;;5032155;28;20834;-34
2022/07/28 04:33:24;;;;;;;6.60;2.87;;;14.10;99.90;;;;;;5031852;28;20277;-34
2022/07/28 04:35:51;;;;;;;3.70;2.10;;;14.10;99.90;;;;;;5031970;28;20728;-34
2022/07/28 04:38:19;;;;;;;3.00;2.20;;;14.10;99.90;;;;;;5031255;28;20187;-34
2022/07/28 04:40:48;;;;;;;6.60;2.37;;;14.10;99.90;;;;;;5035006;28;20439;-34
2022/07/28 04:43:14;;;;;;;5.83;1.83;;;14.10;99.90;;;;;;5046384;28;20419;-34
2022/07/28 04:45:40;;;;;;;3.33;2.00;;;14.20;99.90;;;;;;5038013;28;20541;-34
2022/07/28 04:48:06;;;;;;;5.90;2.10;;;14.30;99.90;;;;;;5031213;28;20194;-34
2022/07/28 04:50:32;;;;;;;4.93;2.20;;;14.30;99.90;;;;;;5031429;28;20471;-34
2022/07/28 04:52:58;;;;;;;6.53;1.83;;;14.30;99.90;;;;;;5031832;28;20464;-34
2022/07/28 04:55:25;;;;;;;6.63;2.30;;;14.30;99.90;;;;;;5031663;28;20882;-34
2022/07/28 04:57:50;;;;;;;3.70;2.10;;;14.20;99.90;;;;;;5031064;28;20439;-34
2022/07/28 05:00:16;;;;;;;6.50;2.50;;;14.20;99.90;;;;;;5031516;28;20520;-34
2022/07/28 05:02:44;;;;;;;3.30;2.10;;;14.20;99.90;;;;;;5034470;28;20408;-34
2022/07/28 05:05:10;;;;;;;4.23;1.80;;;14.20;99.90;;;;;;5049705;28;20476;-34
2022/07/28 05:07:37;;;;;;;5.30;2.10;;;14.20;99.90;;;;;;5039714;28;20801;-34
2022/07/28 05:10:05;;;;;;;6.10;2.10;;;14.20;99.90;;;;;;5044364;28;20463;-34
2022/07/28 05:12:30;;;;;;;3.10;2.20;;;14.20;99.90;;;;;;5038204;28;20796;-34
2022/07/28 05:14:56;;;;;;;2.63;1.90;;;14.30;99.90;;;;;;5037125;28;20429;-33
2022/07/28 05:17:22;;;;;;;3.60;2.20;;;14.20;99.90;;;;;;5028693;28;20499;-34
2022/07/28 05:19:48;;;;;;;3.10;2.17;;;14.20;99.90;;;;;;5029578;28;20634;-34
2022/07/28 05:22:13;;;;;;;5.67;2.40;;;14.30;99.90;;;;;;5054608;28;20561;-34
2022/07/28 05:24:39;;;;;;;7.20;2.47;;;14.20;99.90;;;;;;5040073;28;20645;-34
2022/07/28 05:27:05;;;;;;;3.83;2.23;;;14.30;99.90;;;;;;5038279;28;20197;-34
2022/07/28 05:29:31;;;;;;;5.53;2.47;;;14.30;99.90;;;;;;5050985;28;20721;-34
2022/07/28 05:31:56;;;;;;;2.63;2.37;;;14.30;99.90;;;;;;5050651;28;20200;-34
2022/07/28 05:34:22;;;;;;;3.73;2.07;;;14.40;99.90;;;;;;5050794;28;20259;-34
2022/07/28 05:36:49;;;;;;;2.23;1.93;;;14.50;99.90;;;;;;5050177;28;20217;-34
2022/07/28 05:39:15;;;;;;;2.50;1.97;;;14.50;99.90;;;;;;5049437;28;20190;-34
2022/07/28 05:41:40;;;;;;;3.67;1.97;;;14.60;99.90;;;;;;5043390;28;20936;-34
2022/07/28 05:44:06;;;;;;;4.43;2.80;;;14.60;99.90;;;;;;5049620;28;20508;-34
2022/07/28 05:46:32;;;;;;;4.00;2.47;;;14.60;99.90;;;;;;5040706;28;20194;-34
2022/07/28 05:48:57;;;;;;;3.90;2.30;;;14.60;99.90;;;;;;5030330;28;20199;-34
2022/07/28 05:51:23;;;;;;;4.80;2.10;;;14.70;99.90;;;;;;5030617;28;20723;-34
2022/07/28 05:53:49;;;;;;;4.17;2.40;;;14.80;99.90;;;;;;5030466;28;20182;-34
2022/07/28 05:56:15;;;;;;;5.43;2.73;;;15.00;99.90;;;;;;5030678;28;20213;-34
2022/07/28 05:58:41;;;;;;;5.00;2.90;;;15.10;99.90;;;;;;5034643;28;20190;-34
2022/07/28 06:01:07;;;;;;;3.73;2.27;;;15.10;99.90;;;;;;5041405;28;20186;-34
2022/07/28 06:03:33;;;;;;;4.77;2.67;;;15.10;99.90;;;;;;5045948;28;21201;-34
2022/07/28 06:05:59;;;;;;;4.40;2.57;;;15.10;99.90;;;;;;5036252;28;20825;-34
2022/07/28 06:08:25;;;;;;;7.63;3.10;;;15.20;99.90;;;;;;5044905;28;20477;-34
2022/07/28 06:10:57;;;;;;;5.80;2.90;;;15.30;99.90;;;;;;5036598;28;20990;-34
2022/07/28 06:13:24;;;;;;;3.70;2.60;;;15.40;99.90;;;;;;5049460;28;20327;-34
2022/07/28 06:15:51;;;;;;;3.00;2.60;;;15.50;99.90;;;;;;5048481;28;20463;-34
2022/07/28 06:18:21;;;;;;;3.27;2.20;;;15.70;99.90;;;;;;5049398;28;20431;-34
2022/07/28 06:20:47;;;;;;;4.43;2.33;;;15.90;99.90;;;;;;5044694;28;20936;-34
2022/07/28 06:23:17;;;;;;;3.60;2.90;;;16.00;99.90;;;;;;5042062;28;20416;-35
2022/07/28 06:25:43;;;;;;;7.83;2.53;;;16.10;99.90;;;;;;5041740;28;20447;-34
2022/07/28 06:28:09;;;;;;;3.40;2.30;;;16.30;99.90;;;;;;5035539;28;20804;-34
2022/07/28 06:30:35;;;;;;;7.13;2.57;;;16.40;99.90;;;;;;5039035;28;20216;-34
2022/07/28 06:33:00;;;;;;;6.47;2.73;;;16.50;99.90;;;;;;5049497;28;20561;-34
2022/07/28 06:35:26;;;;;;;3.53;2.20;;;16.60;99.90;;;;;;5040931;28;20187;-34
2022/07/28 06:37:52;;;;;;;5.33;2.40;;;16.70;99.90;;;;;;5036585;28;20248;-34
2022/07/28 06:40:19;;;;;;;7.70;2.70;;;16.80;99.90;;;;;;5049955;28;20899;-34
2022/07/28 06:42:45;;;;;;;6.47;2.47;;;16.90;99.90;;;;;;5049621;28;20435;-34
2022/07/28 06:45:13;;;;;;;3.40;2.40;;;17.10;99.90;;;;;;5049609;28;21058;-34
2022/07/28 06:47:39;;;;;;;4.93;2.50;;;17.30;99.90;;;;;;5047759;28;20428;-34
2022/07/28 06:50:05;;;;;;;3.10;1.97;;;17.50;99.90;;;;;;5041955;28;20876;-34
2022/07/28 06:52:32;;;;;;;4.90;2.00;;;17.70;99.90;;;;;;5046332;28;20190;-34
2022/07/28 06:54:59;;;;;;;6.90;2.80;;;17.80;99.90;;;;;;5029944;28;20428;-34
2022/07/28 06:57:25;;;;;;;3.93;2.07;;;17.90;99.90;;;;;;5029067;28;20982;-34
2022/07/28 06:59:51;;;;;;;6.83;3.00;;;18.00;99.90;;;;;;5029714;28;20437;-34
2022/07/28 07:02:17;;;;;;;6.07;2.87;;;18.10;99.90;;;;;;5029568;28;20429;-34
2022/07/28 07:04:43;;;;;;;3.70;1.93;;;18.10;99.90;;;;;;5029599;28;20202;-34
2022/07/28 07:07:09;;;;;;;2.07;1.77;;;18.10;99.90;;;;;;5028835;28;20190;-34
2022/07/28 07:09:35;;;;;;;2.93;2.00;;;18.20;99.90;;;;;;5029765;28;20429;-34
2022/07/28 07:12:01;;;;;;;3.00;2.07;;;18.20;99.90;;;;;;5029404;28;20190;-34
2022/07/28 07:14:27;;;;;;;5.43;2.10;;;18.20;99.90;;;;;;5029433;28;20421;-35
2022/07/28 07:16:53;;;;;;;1.87;1.60;;;18.30;99.90;;;;;;5029069;28;20417;-35
2022/07/28 07:19:19;;;;;;;4.27;2.20;;;18.40;99.90;;;;;;5028172;28;20649;-35
2022/07/28 07:21:49;;;;;;;6.10;2.30;;;18.50;99.90;;;;;;5049187;28;20213;-35
2022/07/28 07:24:15;;;;;;;3.77;1.77;;;18.50;99.90;;;;;;5028123;28;20920;-35
2022/07/28 07:26:41;;;;;;;3.87;2.10;;;18.50;99.90;;;;;;5028799;28;20428;-35
2022/07/28 07:29:08;;;;;;;3.87;2.30;;;18.40;99.90;;;;;;5029347;28;20178;-34
2022/07/28 07:31:38;;;;;;;12.47;2.67;;;18.30;99.90;;;;;;5029330;28;20460;-35
2022/07/28 07:34:04;;;;;;;7.20;2.57;;;18.20;99.90;;;;;;5029309;28;20422;-35
2022/07/28 07:36:30;;;;;;;2.50;1.80;;;18.20;99.90;;;;;;5029294;28;20931;-35
2022/07/28 07:38:56;;;;;;;3.10;1.63;;;18.40;99.90;;;;;;5028975;28;20421;-35
2022/07/28 07:41:22;;;;;;;4.13;1.80;;;18.60;99.90;;;;;;5032800;28;20487;-35
2022/07/28 07:43:48;;;;;;;3.40;1.63;;;18.80;99.90;;;;;;5033089;28;20282;-35
2022/07/28 07:46:15;;;;;;;2.40;1.97;;;18.80;99.90;;;;;;5032890;28;20512;-35
2022/07/28 07:48:40;;;;;;;3.23;1.60;;;18.80;99.90;;;;;;5032337;28;20191;-35
2022/07/28 07:51:07;;;;;;;5.87;2.07;;;18.80;99.90;;;;;;5032637;28;20995;-35
2022/07/28 07:53:32;;;;;;;4.20;1.70;;;18.70;99.90;;;;;;5032799;28;20190;-35
2022/07/28 07:55:58;;;;;;;3.00;2.03;;;18.80;99.90;;;;;;5032469;28;20436;-35
2022/07/28 07:58:24;;;;;;;8.80;2.13;;;18.90;99.90;;;;;;5032195;28;20269;-35
2022/07/28 08:00:50;;;;;;;3.90;2.10;;;18.80;99.90;;;;;;5032690;28;20252;-35
2022/07/28 08:03:16;;;;;;;5.43;2.00;;;18.80;99.90;;;;;;5031406;28;20433;-35
2022/07/28 08:05:42;;;;;;;3.43;1.53;;;18.90;99.90;;;;;;5032700;28;20921;-35
2022/07/28 08:08:08;;;;;;;5.07;1.97;;;18.80;99.90;;;;;;5039595;28;20470;-35
2022/07/28 08:10:36;;;;;;;5.40;2.10;;;18.80;99.90;;;;;;5038710;28;20547;-35
2022/07/28 08:13:02;;;;;;;4.17;1.50;;;18.90;99.90;;;;;;5052283;28;20420;-34
2022/07/28 08:15:28;;;;;;;3.53;1.97;;;18.90;99.90;;;;;;5052557;28;20517;-35
2022/07/28 08:17:54;;;;;;;3.43;2.07;;;18.80;99.90;;;;;;5051670;28;20427;-35
2022/07/28 08:20:19;;;;;;;7.20;2.70;;;18.80;99.90;;;;;;5052520;28;20942;-35
2022/07/28 08:22:50;;;;;;;2.87;1.83;;;18.70;99.90;;;;;;5049169;28;20190;-35
2022/07/28 08:25:17;;;;;;;2.70;1.87;;;18.70;99.90;;;;;;5032281;28;20225;-35
2022/07/28 08:27:42;;;;;;;3.97;2.00;;;18.70;99.90;;;;;;5031664;28;20452;-35
2022/07/28 08:30:09;;;;;;;4.30;1.60;;;18.70;99.90;;;;;;5032204;28;20453;-35
2022/07/28 08:32:35;;;;;;;2.70;1.60;;;18.70;99.90;;;;;;5032140;28;20702;-35
2022/07/28 08:35:01;;;;;;;3.00;2.33;;;18.70;99.90;;;;;;5032148;28;20429;-35
2022/07/28 08:37:27;;;;;;;4.73;1.60;;;18.60;99.90;;;;;;5031387;28;20191;-35
2022/07/28 08:39:52;;;;;;;5.73;1.70;;;18.70;99.90;;;;;;5031972;28;20194;-35
2022/07/28 08:42:37;;;;;;;2.03;1.33;;;18.70;99.90;;;;;;5031936;28;20204;-35
2022/07/28 08:45:07;;;;;;;3.97;1.70;;;18.70;99.90;;;;;;5039713;28;20201;-35
2022/07/28 08:47:36;;;;;;;3.67;1.60;;;18.70;99.70;;;;;;5051139;28;20417;-35
2022/07/28 08:50:03;;;;;;;6.77;2.10;;;18.80;99.90;;;;;;5051058;28;20492;-35
2022/07/28 08:52:30;;;;;;;4.13;1.50;;;18.80;99.90;;;;;;5050751;28;20416;-35
2022/07/28 08:54:57;;;;;;;3.17;1.70;;;18.90;99.90;;;;;;5051819;28;20451;-35
2022/07/28 08:57:27;;;;;;;3.37;1.53;;;19.00;99.90;;;;;;5051011;28;20795;-35
2022/07/28 08:59:53;;;;;;;2.67;1.77;;;19.10;99.60;;;;;;5051561;28;20431;-35
2022/07/28 09:02:20;;;;;;;4.57;1.40;;;19.20;99.70;;;;;;5051396;28;20451;-35
2022/07/28 09:04:47;;;;;;;4.10;1.90;;;19.30;99.10;;;;;;5051086;28;20440;-35
2022/07/28 09:07:13;;;;;;;1.97;1.13;;;19.30;98.50;;;;;;5050667;28;20428;-35
2022/07/28 09:09:39;;;;;;;3.40;1.57;;;19.40;98.70;;;;;;5040620;28;20433;-35
2022/07/28 09:12:05;;;;;;;4.97;1.97;;;19.50;99.60;;;;;;5048585;28;20428;-35
2022/07/28 09:14:32;;;;;;;4.30;1.97;;;19.60;99.30;;;;;;5051399;28;20622;-35
2022/07/28 09:17:02;;;;;;;3.30;1.63;;;19.60;98.80;;;;;;5050409;28;20995;-35
2022/07/28 09:19:28;;;;;;;3.23;1.80;;;19.70;98.50;;;;;;5049620;28;20427;-35
2022/07/28 09:21:55;;;;;;;2.20;1.50;;;19.80;99.00;;;;;;5056612;28;20432;-35
2022/07/28 09:24:34;;;;;;;4.07;1.70;;;19.90;98.30;;;;;;5031267;28;20463;-35
2022/07/28 09:27:11;;;;;;;5.57;1.60;;;20.10;98.80;;;;;;5030392;28;20449;-35
2022/07/28 09:29:39;;;;;;;3.67;1.80;;;20.30;98.20;;;;;;5029559;28;20490;-35
2022/07/28 09:32:06;;;;;;;7.23;1.90;;;20.50;97.20;;;;;;5030836;28;20425;-35
2022/07/28 09:34:43;;;;;;;2.33;1.40;;;20.60;97.00;;;;;;5030888;28;20413;-35
2022/07/28 09:37:30;;;;;;;6.37;1.80;;;20.70;97.00;;;;;;5030121;28;20993;-35
2022/07/28 09:39:59;;;;;;;4.10;1.40;;;20.90;96.60;;;;;;5030776;28;21124;-35
2022/07/28 09:42:43;;;;;;;3.30;1.43;;;21.00;95.80;;;;;;5030922;28;20429;-35
2022/07/28 09:45:09;;;;;;;3.80;1.50;;;21.20;96.30;;;;;;5039646;28;21279;-35
2022/07/28 09:47:39;;;;;;;4.17;1.70;;;21.20;96.20;;;;;;5049959;28;20424;-35
2022/07/28 09:50:06;;;;;;;2.60;1.33;;;21.30;95.40;;;;;;5050621;28;20483;-35
2022/07/28 09:52:34;;;;;;;2.00;1.67;;;21.40;95.50;;;;;;5050182;28;20434;-35
2022/07/28 09:55:10;;;;;;;3.67;1.60;;;21.50;95.50;;;;;;5050702;28;20493;-35
2022/07/28 09:57:39;;;;;;;3.43;1.50;;;21.60;94.60;;;;;;5049747;28;20435;-35
2022/07/28 10:00:13;;;;;;;3.50;1.67;;;21.70;94.20;;;;;;5050458;28;20428;-35
2022/07/28 10:02:38;;;;;;;3.33;1.80;;;21.70;93.50;;;;;;5050076;28;20439;-35
2022/07/28 10:05:05;;;;;;;2.70;1.40;;;21.70;93.70;;;;;;5050129;28;20444;-35
2022/07/28 10:07:33;;;;;;;4.37;1.60;;;21.80;94.00;;;;;;5049566;28;20194;-35
2022/07/28 10:10:08;;;;;;;5.43;1.80;;;21.90;94.80;;;;;;5036793;28;20457;-35
2022/07/28 10:12:35;;;;;;;2.30;1.30;;;22.00;94.00;;;;;;5049092;28;20518;-35
2022/07/28 10:18:00;;;;;;;1.53;1.40;;;22.20;94.00;;;;;;5049427;28;20486;-35
2022/07/28 10:20:28;;;;;;;2.60;1.50;;;22.20;92.90;;;;;;5050200;28;20966;-35
2022/07/28 10:23:02;;;;;;;2.37;1.67;;;22.30;92.90;;;;;;5044824;28;20435;-35
2022/07/28 10:25:31;;;;;;;2.33;1.47;;;22.40;93.50;;;;;;5037289;28;20428;-36
2022/07/28 10:27:59;;;;;;;3.80;1.50;;;22.40;93.70;;;;;;5049210;28;20432;-35
2022/07/28 10:30:30;;;;;;;4.50;1.80;;;22.40;92.10;;;;;;5050171;28;20823;-36
2022/07/28 10:32:58;;;;;;;2.00;1.57;;;22.40;91.60;;;;;;5050022;28;20428;-35
2022/07/28 10:35:25;;;;;;;3.30;1.73;;;22.40;91.60;;;;;;5049835;28;20810;-35
2022/07/28 10:37:58;;;;;;;3.17;1.43;;;22.40;92.20;;;;;;5049179;28;20942;-35
2022/07/28 10:40:31;;;;;;;4.50;1.67;;;22.50;91.20;;;;;;5049813;28;20428;-35
2022/07/28 10:42:58;;;;;;;4.60;2.00;;;22.60;90.70;;;;;;5049778;28;20427;-35
2022/07/28 10:45:26;;;;;;;5.03;1.37;;;22.40;91.40;;;;;;5049654;28;20431;-35
2022/07/28 10:47:53;;;;;;;4.07;1.70;;;22.50;92.90;;;;;;5047891;28;21009;-35
2022/07/28 10:50:20;;;;;;;2.40;1.50;;;22.50;92.10;;;;;;5049761;28;21156;-35
2022/07/28 10:52:46;;;;;;;3.70;1.53;;;22.50;91.10;;;;;;5048431;28;20511;-35
2022/07/28 10:55:30;;;;;;;1.07;0.97;;;22.60;91.60;;;;;;5049489;28;20497;-35
2022/07/28 10:58:12;;;;;;;3.03;1.47;;;22.70;91.20;;;;;;5048956;28;20439;-35
2022/07/28 11:00:51;;;;;;;4.23;2.00;;;22.80;90.40;;;;;;5049780;28;20941;-35
2022/07/28 11:03:43;;;;;;;2.60;1.40;;;22.90;90.40;;;;;;5049460;28;20483;-35
2022/07/28 11:06:27;;;;;;;5.80;1.73;;;22.90;91.00;;;;;;5049601;28;20781;-35
2022/07/28 11:08:55;;;;;;;2.90;1.50;;;23.00;91.80;;;;;;5043164;28;20787;-35
2022/07/28 11:11:45;;;;;;;3.60;1.80;;;23.00;90.80;;;;;;5041119;28;20506;-35
2022/07/28 11:14:23;;;;;;;3.13;2.30;;;23.10;90.80;;;;;;5049814;28;20478;-35
2022/07/28 11:17:04;;;;;;;3.47;2.13;;;23.20;91.50;;;;;;5052868;28;20461;-35
2022/07/28 11:19:45;;;;;;;3.73;1.60;;;23.40;91.10;;;;;;5052408;28;20423;-35
2022/07/28 11:22:32;;;;;;;2.63;1.43;;;23.50;90.70;;;;;;5054258;28;20424;-35
2022/07/28 11:25:01;;;;;;;1.83;1.30;;;23.50;90.90;;;;;;5033494;28;20776;-35
2022/07/28 11:27:42;;;;;;;2.40;1.40;;;23.60;91.80;;;;;;5032788;28;20962;-35
2022/07/28 11:30:34;;;;;;;2.73;1.60;;;23.80;89.50;;;;;;5033082;28;20468;-35
2022/07/28 11:33:10;;;;;;;4.33;2.13;;;23.80;87.40;;;;;;5031951;28;20465;-35
2022/07/28 11:35:38;;;;;;;3.77;1.50;;;23.80;87.70;;;;;;5033117;28;20455;-35
2022/07/28 11:38:04;;;;;;;5.03;1.70;;;23.80;86.80;;;;;;5032474;28;20432;-36
2022/07/28 11:40:41;;;;;;;3.30;1.57;;;23.70;90.40;;;;;;5033144;28;20483;-36
2022/07/28 11:46:09;;;;;;;4.70;1.97;;;23.80;89.90;;;;;;5032913;28;20424;-35
2022/07/28 11:48:35;;;;;;;5.10;1.50;;;23.80;86.50;;;;;;5031601;28;20535;-35
2022/07/28 11:51:03;;;;;;;2.13;1.70;;;23.80;90.10;;;;;;5032884;28;20812;-36
2022/07/28 11:53:54;;;;;;;6.63;1.53;;;23.80;91.20;;;;;;5032647;28;20478;-36
2022/07/28 11:56:30;;;;;;;3.30;1.80;;;23.90;90.40;;;;;;5040322;28;20520;-36
2022/07/28 11:59:01;;;;;;;2.83;1.60;;;24.00;87.90;;;;;;5052441;28;20443;-35
2022/07/28 12:01:26;;;;;;;4.30;1.60;;;24.00;87.50;;;;;;5051403;28;20428;-35
2022/07/28 12:03:54;;;;;;;2.63;1.70;;;24.00;86.50;;;;;;5052389;28;20424;-36
2022/07/28 12:06:21;;;;;;;3.30;1.70;;;23.90;89.60;;;;;;5052428;28;20205;-35
2022/07/28 12:09:01;;;;;;;3.47;1.67;;;24.00;89.60;;;;;;5048116;28;20912;-35
2022/07/28 12:11:31;;;;;;;2.53;1.70;;;24.00;89.00;;;;;;5044527;28;20909;-35
2022/07/28 12:13:58;;;;;;;2.93;1.60;;;24.00;88.50;;;;;;5052468;28;20794;-35
2022/07/28 12:16:28;;;;;;;2.90;1.80;;;24.00;90.10;;;;;;5052103;28;20416;-36
2022/07/28 12:18:54;;;;;;;3.77;1.80;;;24.00;87.30;;;;;;5050715;28;20422;-36
2022/07/28 12:21:42;;;;;;;2.47;2.10;;;24.00;85.20;;;;;;5061742;28;20782;-36
2022/07/28 12:24:10;;;;;;;2.53;1.80;;;24.00;89.30;;;;;;5032250;28;20429;-35
2022/07/28 12:26:37;;;;;;;4.97;1.80;;;23.90;87.80;;;;;;5031668;28;20478;-35
2022/07/28 12:29:04;;;;;;;2.50;1.80;;;23.90;90.10;;;;;;5030726;28;20436;-35
2022/07/28 12:31:36;;;;;;;4.00;1.70;;;24.00;91.00;;;;;;5032061;28;20465;-35
2022/07/28 12:34:06;;;;;;;4.13;2.20;;;24.10;88.30;;;;;;5032219;28;20767;-35
2022/07/28 12:36:33;;;;;;;6.73;2.27;;;24.10;90.30;;;;;;5031704;28;20417;-35
2022/07/28 12:39:00;;;;;;;2.87;1.70;;;24.10;89.30;;;;;;5031859;28;20830;-35
2022/07/28 12:41:33;;;;;;;2.87;1.67;;;24.10;88.10;;;;;;5031735;28;20940;-36
2022/07/28 12:44:00;;;;;;;2.90;1.80;;;24.00;88.40;;;;;;5031899;28;20437;-35
2022/07/28 12:46:28;;;;;;;4.73;1.80;;;24.00;88.70;;;;;;5031853;28;20523;-35
2022/07/28 12:48:55;;;;;;;2.07;1.60;;;23.90;88.40;;;;;;5031330;28;20583;-35
2022/07/28 12:51:37;;;;;;;2.10;1.60;;;24.00;88.60;;;;;;5037236;28;20525;-36
2022/07/28 12:54:06;;;;;;;3.97;1.90;;;24.10;90.00;;;;;;5051841;28;20774;-35
2022/07/28 12:56:48;;;;;;;3.10;1.60;;;24.20;86.60;;;;;;5051325;28;20425;-36
2022/07/28 12:59:15;;;;;;;3.60;1.70;;;24.10;86.60;;;;;;5051592;28;20460;-35
2022/07/28 13:01:55;;;;;;;3.17;1.80;;;24.10;89.40;;;;;;5051429;28;20416;-35
2022/07/28 13:04:43;;;;;;;5.40;2.93;;;24.20;87.80;;;;;;5051316;28;20494;-35
2022/07/28 13:07:22;;;;;;;4.17;2.30;;;24.20;87.00;;;;;;5050693;28;20927;-36
2022/07/28 13:10:03;;;;;;;2.27;2.00;;;24.20;85.50;;;;;;5030309;28;20837;-35